Time;durP1;ratioP1;P1;durP2;ratioP2;P2;SDS_P1;SDS_P2;PMS_P1;PMS_P2;Temp;Humidity;BMP_temperature;BMP_pressure;BME280_temperature;BME280_humidity;BME280_pressure;Samples;Min_cycle;Max_cycle;Signal;HPM_P1;HPM_P2
2023/08/24 00:09:08;;;;;;;10.48;5.38;;;31.50;23.10;;;;;;20921212;28;20078;-57
2023/08/24 00:19:09;;;;;;;9.68;5.38;;;31.40;23.30;;;;;;20920507;28;20052;-57
2023/08/24 00:29:09;;;;;;;10.15;5.25;;;31.30;23.30;;;;;;20919176;28;20052;-56
2023/08/24 00:39:11;;;;;;;7.57;4.67;;;31.10;23.40;;;;;;20917062;28;20186;-58
2023/08/24 00:49:12;;;;;;;8.05;5.05;;;31.10;23.70;;;;;;20917639;28;20703;-57
2023/08/24 00:59:13;;;;;;;11.98;5.90;;;31.00;23.60;;;;;;20915672;28;20041;-57
2023/08/24 01:09:14;;;;;;;14.60;5.90;;;30.50;26.40;;;;;;20915868;28;20051;-57
2023/08/24 01:19:41;;;;;;;11.88;6.03;;;29.90;27.40;;;;;;20915767;28;20052;-57
2023/08/24 01:29:42;;;;;;;11.52;6.07;;;29.50;27.80;;;;;;20911367;28;20562;-57
2023/08/24 01:39:50;;;;;;;12.30;6.10;;;29.10;28.50;;;;;;20914641;28;20057;-56
2023/08/24 01:49:51;;;;;;;9.80;6.18;;;29.00;28.50;;;;;;20913341;28;20140;-57
2023/08/24 01:59:52;;;;;;;10.23;5.80;;;28.70;28.80;;;;;;20913544;28;20375;-57
2023/08/24 02:09:53;;;;;;;12.77;6.55;;;28.40;29.00;;;;;;20911877;28;20111;-57
2023/08/24 02:19:55;;;;;;;15.38;6.00;;;28.20;29.10;;;;;;20912707;28;20045;-57
2023/08/24 02:29:56;;;;;;;9.60;6.30;;;28.20;29.30;;;;;;20911382;28;20130;-57
2023/08/24 02:39:56;;;;;;;11.07;5.63;;;28.00;29.70;;;;;;20910631;28;20049;-57
2023/08/24 02:49:57;;;;;;;;;;;27.90;30.00;;;;;;20911747;28;20045;-57
2023/08/24 02:59:58;;;;;;;9.68;5.97;;;27.70;30.00;;;;;;20922565;28;19931;-57
2023/08/24 03:10:00;;;;;;;8.15;5.68;;;27.70;30.20;;;;;;20925296;28;20421;-58
2023/08/24 03:20:00;;;;;;;;;;;27.60;30.60;;;;;;20925611;28;20106;-57
2023/08/24 03:30:04;;;;;;;13.20;6.03;;;27.40;30.90;;;;;;20923747;28;20297;-57
2023/08/24 03:40:06;;;;;;;10.65;5.78;;;27.40;31.20;;;;;;20923373;28;20079;-56
2023/08/24 03:50:07;;;;;;;8.23;5.20;;;27.50;30.80;;;;;;20922587;28;20486;-56
2023/08/24 04:00:11;;;;;;;;;;;27.50;30.80;;;;;;20921421;28;20083;-57
2023/08/24 04:10:12;;;;;;;8.80;5.53;;;27.30;30.90;;;;;;20920122;28;20011;-57
2023/08/24 04:20:13;;;;;;;10.40;5.93;;;27.20;31.40;;;;;;20920446;28;20415;-57
2023/08/24 04:30:14;;;;;;;9.17;5.77;;;27.20;31.40;;;;;;20919138;28;20056;-57
2023/08/24 04:40:15;;;;;;;10.17;5.47;;;27.10;31.70;;;;;;20917660;28;20286;-56
2023/08/24 04:50:15;;;;;;;11.60;6.50;;;27.10;31.60;;;;;;20917833;28;20522;-56
2023/08/24 05:00:17;;;;;;;7.60;5.73;;;27.10;32.00;;;;;;20917213;28;20099;-56
2023/08/24 05:10:17;;;;;;;8.43;5.43;;;27.00;32.40;;;;;;20916812;28;20049;-57
2023/08/24 05:20:19;;;;;;;9.00;5.53;;;27.00;32.10;;;;;;20914708;28;20064;-56
2023/08/24 05:30:19;;;;;;;;;;;26.90;32.30;;;;;;20915711;28;20609;-56
2023/08/24 05:40:20;;;;;;;10.37;6.20;;;26.90;32.30;;;;;;20913318;28;19920;-55
2023/08/24 05:50:21;;;;;;;8.67;6.13;;;26.70;32.80;;;;;;20914104;28;20041;-57
2023/08/24 06:00:22;;;;;;;8.70;5.27;;;27.00;32.60;;;;;;20912488;28;20044;-57
2023/08/24 06:10:24;;;;;;;14.00;5.65;;;27.10;32.50;;;;;;20912924;28;20536;-56
2023/08/24 06:20:24;;;;;;;;;;;27.40;32.30;;;;;;20913140;28;20509;-57
2023/08/24 06:30:27;;;;;;;11.47;4.67;;;27.40;32.10;;;;;;20916474;28;19982;-56
2023/08/24 06:40:28;;;;;;;11.93;5.50;;;27.60;32.10;;;;;;20926813;28;20091;-56
2023/08/24 06:50:29;;;;;;;7.45;4.93;;;27.70;32.20;;;;;;20927372;28;20128;-57
2023/08/24 07:00:30;;;;;;;10.07;4.57;;;27.90;32.10;;;;;;20926885;28;20080;-56
2023/08/24 07:10:30;;;;;;;8.23;5.50;;;28.10;32.00;;;;;;20925305;28;20045;-57
2023/08/24 07:20:35;;;;;;;;;;;28.30;31.50;;;;;;20924400;28;20048;-58
2023/08/24 07:30:35;;;;;;;8.95;4.50;;;28.70;31.30;;;;;;20923559;28;19990;-57
2023/08/24 07:40:37;;;;;;;6.40;5.05;;;29.00;31.00;;;;;;20922006;28;20045;-57
2023/08/24 07:50:37;;;;;;;8.65;5.05;;;29.30;30.40;;;;;;20922460;28;20540;-57
2023/08/24 08:00:39;;;;;;;9.90;5.05;;;29.50;30.30;;;;;;20922030;28;20041;-57
2023/08/24 08:10:40;;;;;;;5.80;4.40;;;29.80;30.00;;;;;;20919794;28;20106;-58
2023/08/24 08:20:41;;;;;;;8.98;4.88;;;30.10;30.70;;;;;;20920055;28;20056;-56
2023/08/24 08:30:41;;;;;;;9.50;4.63;;;30.20;30.50;;;;;;20918582;28;20056;-58
2023/08/24 08:40:44;;;;;;;9.65;4.60;;;30.40;29.00;;;;;;20918781;28;20124;-58
2023/08/24 08:50:48;;;;;;;6.63;4.68;;;30.70;28.30;;;;;;20917807;28;20048;-57
2023/08/24 09:00:51;;;;;;;12.43;5.35;;;30.90;27.80;;;;;;20917245;28;20053;-57
2023/08/24 09:10:51;;;;;;;10.18;4.80;;;31.10;27.40;;;;;;20915186;28;20041;-57
2023/08/24 09:20:52;;;;;;;9.23;5.28;;;31.30;27.50;;;;;;20913342;28;20087;-57
2023/08/24 09:30:56;;;;;;;9.30;4.95;;;31.60;27.30;;;;;;20914695;28;20529;-57
2023/08/24 09:40:57;;;;;;;9.75;4.88;;;31.80;26.70;;;;;;20914378;28;20057;-56
2023/08/24 09:51:00;;;;;;;14.88;5.57;;;32.00;26.80;;;;;;20913741;28;20086;-56
2023/08/24 10:01:03;;;;;;;11.00;4.80;;;32.10;26.80;;;;;;20913138;28;20080;-56
2023/08/24 10:11:06;;;;;;;12.40;4.75;;;32.40;26.50;;;;;;20910671;28;20076;-56
2023/08/24 10:21:08;;;;;;;11.35;4.95;;;32.50;26.00;;;;;;20912059;28;20052;-56
2023/08/24 10:31:09;;;;;;;11.25;4.72;;;32.80;26.00;;;;;;20911151;28;20052;-57
2023/08/24 10:41:13;;;;;;;11.88;4.85;;;33.10;25.30;;;;;;20911867;28;20052;-58
2023/08/24 10:51:19;;;;;;;9.85;5.03;;;33.30;24.80;;;;;;20911574;28;20512;-58
2023/08/24 11:01:23;;;;;;;10.15;4.63;;;33.50;24.50;;;;;;20910941;28;20056;-57
2023/08/24 11:11:27;;;;;;;12.88;5.80;;;33.70;24.20;;;;;;20910238;28;20041;-58
2023/08/24 11:21:28;;;;;;;9.45;4.53;;;34.00;23.60;;;;;;20921817;28;20072;-59
2023/08/24 11:31:29;;;;;;;13.70;5.13;;;34.10;23.80;;;;;;20922908;28;20094;-59
2023/08/24 11:41:30;;;;;;;8.85;4.93;;;34.30;23.30;;;;;;20921783;28;20127;-58
2023/08/24 11:51:33;;;;;;;10.00;4.22;;;34.60;22.80;;;;;;20922106;28;20482;-58
2023/08/24 12:01:34;;;;;;;11.60;4.22;;;34.80;22.60;;;;;;20921744;28;20530;-57
2023/08/24 12:11:36;;;;;;;9.48;4.40;;;35.10;21.90;;;;;;20918942;28;20513;-58
2023/08/24 12:21:37;;;;;;;9.77;4.22;;;35.30;21.10;;;;;;20917899;28;20084;-59
2023/08/24 12:31:43;;;;;;;11.88;5.07;;;35.50;21.20;;;;;;20917471;28;20536;-59
2023/08/24 12:41:44;;;;;;;8.10;4.57;;;35.80;21.40;;;;;;20918795;28;20094;-59
2023/08/24 12:51:44;;;;;;;8.18;4.28;;;36.10;20.70;;;;;;20917839;28;20076;-58
2023/08/24 13:01:45;;;;;;;8.20;4.35;;;36.30;20.40;;;;;;20916099;28;20080;-58
2023/08/24 13:11:48;;;;;;;6.85;3.53;;;36.30;19.60;;;;;;20916598;28;20474;-58
2023/08/24 13:21:49;;;;;;;9.30;4.47;;;36.50;18.90;;;;;;20915899;28;20049;-59
2023/08/24 13:31:50;;;;;;;7.50;3.90;;;36.50;19.30;;;;;;20915286;28;20064;-58
2023/08/24 13:41:50;;;;;;;12.55;3.75;;;36.60;19.70;;;;;;20912642;28;20051;-57
2023/08/24 13:51:51;;;;;;;8.88;5.20;;;36.60;19.70;;;;;;20913853;28;20573;-58
2023/08/24 14:01:52;;;;;;;7.70;4.55;;;36.70;19.40;;;;;;20913538;28;20037;-60
2023/08/24 14:11:53;;;;;;;6.40;3.88;;;36.70;19.10;;;;;;20912680;28;20041;-59
2023/08/24 14:21:54;;;;;;;6.40;3.60;;;36.90;19.10;;;;;;20911533;28;20057;-58
2023/08/24 14:31:54;;;;;;;7.57;3.53;;;37.10;18.60;;;;;;20910604;28;20053;-58
2023/08/24 14:41:55;;;;;;;7.37;3.73;;;37.30;18.40;;;;;;20911095;28;20510;-57
2023/08/24 14:51:56;;;;;;;7.72;4.85;;;37.30;17.90;;;;;;20916836;28;20893;-59
2023/08/24 15:02:00;;;;;;;5.70;5.10;;;37.20;17.90;;;;;;20926804;28;20072;-59
2023/08/24 15:12:00;;;;;;;6.38;4.07;;;37.50;16.70;;;;;;20925478;28;20119;-58
2023/08/24 15:22:01;;;;;;;4.53;3.58;;;37.40;16.40;;;;;;20925116;28;20076;-58
2023/08/24 15:32:02;;;;;;;6.05;3.50;;;37.70;16.30;;;;;;20923226;28;20453;-58
2023/08/24 15:42:04;;;;;;;7.13;3.60;;;37.50;16.60;;;;;;20922596;28;20124;-58
2023/08/24 15:52:06;;;;;;;4.78;3.50;;;37.70;16.50;;;;;;20922753;28;20124;-58
2023/08/24 16:02:08;;;;;;;7.07;3.33;;;37.60;17.10;;;;;;20919467;28;20045;-57
2023/08/24 16:12:08;;;;;;;5.28;3.38;;;37.60;17.40;;;;;;20919681;28;20044;-59
2023/08/24 16:22:09;;;;;;;5.65;3.50;;;37.60;17.20;;;;;;20918629;28;20045;-58
2023/08/24 16:32:10;;;;;;;5.00;3.47;;;37.50;17.30;;;;;;20917649;28;20072;-59
2023/08/24 16:42:10;;;;;;;7.70;3.03;;;37.50;17.20;;;;;;20917969;28;20312;-58
2023/08/24 16:52:11;;;;;;;10.13;4.15;;;37.30;16.80;;;;;;20918554;28;20294;-58
2023/08/24 17:02:12;;;;;;;4.68;3.20;;;37.50;16.50;;;;;;20916317;28;20091;-60
2023/08/24 17:12:13;;;;;;;4.55;3.20;;;37.40;16.40;;;;;;20916250;28;20479;-58
2023/08/24 17:22:14;;;;;;;6.35;4.30;;;37.30;17.10;;;;;;20915544;28;20044;-62
2023/08/24 17:32:14;;;;;;;7.55;4.30;;;37.30;17.40;;;;;;20913283;28;20135;-61
2023/08/24 17:42:15;;;;;;;5.55;3.97;;;37.20;17.20;;;;;;20914550;28;20048;-61
2023/08/24 17:52:16;;;;;;;7.03;3.92;;;37.10;17.80;;;;;;20913751;28;20429;-60
2023/08/24 18:02:17;;;;;;;6.05;3.90;;;36.90;17.80;;;;;;20913715;28;20076;-61
2023/08/24 18:12:17;;;;;;;7.38;4.82;;;36.70;18.20;;;;;;20912790;28;20395;-60
2023/08/24 18:22:18;;;;;;;10.50;3.78;;;36.50;18.20;;;;;;20911250;28;20057;-61
2023/08/24 18:32:19;;;;;;;5.60;3.53;;;36.30;18.30;;;;;;20925746;28;20068;-60
2023/08/24 18:42:20;;;;;;;7.93;4.25;;;36.10;18.80;;;;;;20927983;28;20402;-59
2023/08/24 18:52:21;;;;;;;7.65;4.55;;;35.90;18.80;;;;;;20925333;28;20049;-60
2023/08/24 19:02:22;;;;;;;11.38;5.28;;;35.70;19.40;;;;;;20926391;28;20527;-60
2023/08/24 19:12:22;;;;;;;12.18;5.88;;;35.50;20.00;;;;;;20926024;28;20077;-60
2023/08/24 19:22:23;;;;;;;10.68;5.30;;;35.30;20.60;;;;;;20924634;28;20125;-61
2023/08/24 19:32:24;;;;;;;9.50;4.57;;;35.10;21.10;;;;;;20922735;28;20092;-60
2023/08/24 19:42:25;;;;;;;7.53;3.75;;;35.00;21.30;;;;;;20922567;28;20677;-59
2023/08/24 19:52:26;;;;;;;11.05;4.32;;;34.90;21.40;;;;;;20921508;28;20049;-60
2023/08/24 20:02:27;;;;;;;14.60;4.72;;;34.70;21.40;;;;;;20921609;28;20075;-59
2023/08/24 20:12:27;;;;;;;10.40;4.13;;;34.60;21.50;;;;;;20920315;28;20045;-59
2023/08/24 20:22:28;;;;;;;14.05;4.65;;;34.50;21.80;;;;;;20919950;28;20052;-59
2023/08/24 20:32:29;;;;;;;12.73;5.15;;;34.30;22.30;;;;;;20918471;28;20132;-59
2023/08/24 20:42:30;;;;;;;15.90;5.25;;;34.20;22.80;;;;;;20918428;28;20048;-61
2023/08/24 20:52:31;;;;;;;10.95;5.28;;;34.10;23.10;;;;;;20915554;28;20128;-60
2023/08/24 21:02:32;;;;;;;13.40;4.90;;;34.00;23.30;;;;;;20917489;28;20390;-58
2023/08/24 21:12:33;;;;;;;14.98;5.28;;;33.90;23.40;;;;;;20916437;28;20077;-59
2023/08/24 21:22:35;;;;;;;14.20;6.38;;;33.70;23.50;;;;;;20914569;28;20041;-59
2023/08/24 21:32:36;;;;;;;10.05;4.80;;;33.50;23.80;;;;;;20914479;28;20053;-58
2023/08/24 21:42:38;;;;;;;10.52;5.40;;;33.40;23.90;;;;;;20913197;28;20106;-58
2023/08/24 21:52:38;;;;;;;11.38;5.47;;;33.30;24.10;;;;;;20913649;28;20561;-58
2023/08/24 22:02:42;;;;;;;12.20;4.60;;;33.20;24.20;;;;;;20911204;28;20095;-58
2023/08/24 22:12:43;;;;;;;8.77;4.55;;;32.90;24.50;;;;;;20910354;28;20332;-57
2023/08/24 22:22:44;;;;;;;10.80;4.80;;;32.70;24.80;;;;;;20911809;28;20061;-57
2023/08/24 22:32:46;;;;;;;13.98;5.75;;;32.60;24.90;;;;;;20910642;28;20056;-57
2023/08/24 22:42:47;;;;;;;17.55;8.40;;;32.40;25.30;;;;;;20909078;28;20048;-58
2023/08/24 22:52:47;;;;;;;16.50;7.78;;;32.10;25.00;;;;;;20910995;28;20525;-58
2023/08/24 23:02:48;;;;;;;21.77;6.37;;;32.10;24.00;;;;;;20910232;28;20452;-57
2023/08/24 23:12:49;;;;;;;26.38;11.13;;;32.00;23.30;;;;;;20915750;28;20821;-58
2023/08/24 23:22:50;;;;;;;16.40;5.00;;;31.90;23.10;;;;;;20923834;28;20083;-59
2023/08/24 23:32:51;;;;;;;19.90;5.43;;;31.80;22.60;;;;;;20923759;28;20111;-56
2023/08/24 23:42:51;;;;;;;21.45;6.25;;;31.80;22.70;;;;;;20924299;28;20049;-57
2023/08/24 23:52:52;;;;;;;18.73;5.03;;;31.70;22.10;;;;;;20922924;28;20048;-57
